sensor_id;sensor_type;location;lat;lon;timestamp;P1;durP1;ratioP1;P2;durP2;ratioP2
30697;SDS011;17448;47.200;10.902;2023-08-12T00:01:28;4.15;;;3.15;;
30697;SDS011;17448;47.200;10.902;2023-08-12T00:03:54;3.95;;;2.50;;
30697;SDS011;17448;47.200;10.902;2023-08-12T00:06:20;6.28;;;2.63;;
30697;SDS011;17448;47.200;10.902;2023-08-12T00:08:46;2.90;;;2.60;;
30697;SDS011;17448;47.200;10.902;2023-08-12T00:11:13;4.10;;;2.85;;
30697;SDS011;17448;47.200;10.902;2023-08-12T00:13:39;6.25;;;2.83;;
30697;SDS011;17448;47.200;10.902;2023-08-12T00:16:05;4.28;;;2.75;;
30697;SDS011;17448;47.200;10.902;2023-08-12T00:18:31;4.68;;;2.90;;
30697;SDS011;17448;47.200;10.902;2023-08-12T00:21:05;3.75;;;2.88;;
30697;SDS011;17448;47.200;10.902;2023-08-12T00:23:32;5.10;;;2.88;;
30697;SDS011;17448;47.200;10.902;2023-08-12T00:25:58;5.35;;;2.45;;
30697;SDS011;17448;47.200;10.902;2023-08-12T00:28:24;4.20;;;2.90;;
30697;SDS011;17448;47.200;10.902;2023-08-12T00:30:51;4.97;;;2.70;;
30697;SDS011;17448;47.200;10.902;2023-08-12T00:33:17;6.30;;;2.60;;
30697;SDS011;17448;47.200;10.902;2023-08-12T00:35:43;3.55;;;2.40;;
30697;SDS011;17448;47.200;10.902;2023-08-12T00:38:10;4.15;;;2.92;;
30697;SDS011;17448;47.200;10.902;2023-08-12T00:40:36;6.35;;;3.28;;
30697;SDS011;17448;47.200;10.902;2023-08-12T00:43:03;6.85;;;2.95;;
30697;SDS011;17448;47.200;10.902;2023-08-12T00:45:30;5.82;;;2.88;;
30697;SDS011;17448;47.200;10.902;2023-08-12T00:47:57;7.95;;;3.00;;
30697;SDS011;17448;47.200;10.902;2023-08-12T00:50:23;3.42;;;2.40;;
30697;SDS011;17448;47.200;10.902;2023-08-12T00:52:50;4.20;;;3.05;;
30697;SDS011;17448;47.200;10.902;2023-08-12T00:55:16;4.90;;;2.55;;
30697;SDS011;17448;47.200;10.902;2023-08-12T00:57:44;3.42;;;2.70;;
30697;SDS011;17448;47.200;10.902;2023-08-12T01:00:10;4.55;;;2.88;;
30697;SDS011;17448;47.200;10.902;2023-08-12T01:02:38;5.65;;;2.60;;
30697;SDS011;17448;47.200;10.902;2023-08-12T01:05:04;5.20;;;3.00;;
30697;SDS011;17448;47.200;10.902;2023-08-12T01:07:31;4.15;;;2.70;;
30697;SDS011;17448;47.200;10.902;2023-08-12T01:10:01;4.28;;;3.22;;
30697;SDS011;17448;47.200;10.902;2023-08-12T01:12:36;2.95;;;2.60;;
30697;SDS011;17448;47.200;10.902;2023-08-12T01:15:17;6.07;;;2.55;;
30697;SDS011;17448;47.200;10.902;2023-08-12T01:17:48;6.07;;;2.78;;
30697;SDS011;17448;47.200;10.902;2023-08-12T01:20:17;2.40;;;2.20;;
30697;SDS011;17448;47.200;10.902;2023-08-12T01:22:49;3.93;;;2.93;;
30697;SDS011;17448;47.200;10.902;2023-08-12T01:25:19;7.18;;;2.85;;
30697;SDS011;17448;47.200;10.902;2023-08-12T01:27:46;3.85;;;2.85;;
30697;SDS011;17448;47.200;10.902;2023-08-12T01:30:15;3.60;;;2.78;;
30697;SDS011;17448;47.200;10.902;2023-08-12T01:35:10;9.07;;;2.92;;
30697;SDS011;17448;47.200;10.902;2023-08-12T01:37:39;4.63;;;2.83;;
30697;SDS011;17448;47.200;10.902;2023-08-12T01:40:07;3.60;;;2.17;;
30697;SDS011;17448;47.200;10.902;2023-08-12T01:42:34;3.97;;;2.83;;
30697;SDS011;17448;47.200;10.902;2023-08-12T01:45:01;4.88;;;2.60;;
30697;SDS011;17448;47.200;10.902;2023-08-12T01:47:28;3.00;;;2.70;;
30697;SDS011;17448;47.200;10.902;2023-08-12T01:49:58;6.20;;;3.00;;
30697;SDS011;17448;47.200;10.902;2023-08-12T01:52:24;4.40;;;2.67;;
30697;SDS011;17448;47.200;10.902;2023-08-12T01:54:53;3.55;;;2.58;;
30697;SDS011;17448;47.200;10.902;2023-08-12T01:57:20;4.07;;;3.00;;
30697;SDS011;17448;47.200;10.902;2023-08-12T01:59:47;6.03;;;2.80;;
30697;SDS011;17448;47.200;10.902;2023-08-12T02:02:14;6.13;;;2.83;;
30697;SDS011;17448;47.200;10.902;2023-08-12T02:04:40;3.05;;;2.53;;
30697;SDS011;17448;47.200;10.902;2023-08-12T02:07:10;7.28;;;3.10;;
30697;SDS011;17448;47.200;10.902;2023-08-12T02:09:37;7.00;;;2.85;;
30697;SDS011;17448;47.200;10.902;2023-08-12T02:12:04;5.38;;;2.67;;
30697;SDS011;17448;47.200;10.902;2023-08-12T02:14:30;3.22;;;2.47;;
30697;SDS011;17448;47.200;10.902;2023-08-12T02:16:57;4.28;;;2.80;;
30697;SDS011;17448;47.200;10.902;2023-08-12T02:19:24;4.13;;;2.50;;
30697;SDS011;17448;47.200;10.902;2023-08-12T02:21:52;3.63;;;2.80;;
30697;SDS011;17448;47.200;10.902;2023-08-12T02:24:18;4.30;;;2.65;;
30697;SDS011;17448;47.200;10.902;2023-08-12T02:26:45;4.32;;;2.65;;
30697;SDS011;17448;47.200;10.902;2023-08-12T02:29:13;3.65;;;2.40;;
30697;SDS011;17448;47.200;10.902;2023-08-12T02:31:39;3.53;;;2.53;;
30697;SDS011;17448;47.200;10.902;2023-08-12T02:34:05;3.95;;;2.65;;
30697;SDS011;17448;47.200;10.902;2023-08-12T02:36:32;4.05;;;2.80;;
30697;SDS011;17448;47.200;10.902;2023-08-12T02:38:59;3.33;;;2.70;;
30697;SDS011;17448;47.200;10.902;2023-08-12T02:41:25;3.08;;;2.40;;
30697;SDS011;17448;47.200;10.902;2023-08-12T02:43:52;4.68;;;3.38;;
30697;SDS011;17448;47.200;10.902;2023-08-12T02:46:18;4.53;;;2.83;;
30697;SDS011;17448;47.200;10.902;2023-08-12T02:48:45;3.50;;;2.70;;
30697;SDS011;17448;47.200;10.902;2023-08-12T02:51:12;4.53;;;3.05;;
30697;SDS011;17448;47.200;10.902;2023-08-12T02:53:39;3.40;;;2.67;;
30697;SDS011;17448;47.200;10.902;2023-08-12T02:56:05;7.50;;;2.80;;
30697;SDS011;17448;47.200;10.902;2023-08-12T02:58:31;3.53;;;2.80;;
30697;SDS011;17448;47.200;10.902;2023-08-12T03:00:58;3.97;;;2.42;;
30697;SDS011;17448;47.200;10.902;2023-08-12T03:03:24;7.18;;;3.10;;
30697;SDS011;17448;47.200;10.902;2023-08-12T03:05:50;7.32;;;3.22;;
30697;SDS011;17448;47.200;10.902;2023-08-12T03:08:16;3.45;;;2.67;;
30697;SDS011;17448;47.200;10.902;2023-08-12T03:10:44;3.95;;;2.67;;
30697;SDS011;17448;47.200;10.902;2023-08-12T03:13:13;6.45;;;2.67;;
30697;SDS011;17448;47.200;10.902;2023-08-12T03:15:39;3.20;;;2.47;;
30697;SDS011;17448;47.200;10.902;2023-08-12T03:18:06;3.80;;;2.53;;
30697;SDS011;17448;47.200;10.902;2023-08-12T03:20:32;3.22;;;2.60;;
30697;SDS011;17448;47.200;10.902;2023-08-12T03:22:59;5.20;;;2.58;;
30697;SDS011;17448;47.200;10.902;2023-08-12T03:25:25;5.03;;;2.92;;
30697;SDS011;17448;47.200;10.902;2023-08-12T03:27:52;4.47;;;2.78;;
30697;SDS011;17448;47.200;10.902;2023-08-12T03:30:19;4.15;;;3.17;;
30697;SDS011;17448;47.200;10.902;2023-08-12T03:32:46;4.22;;;3.00;;
30697;SDS011;17448;47.200;10.902;2023-08-12T03:35:13;4.05;;;2.90;;
30697;SDS011;17448;47.200;10.902;2023-08-12T03:37:41;3.53;;;2.75;;
30697;SDS011;17448;47.200;10.902;2023-08-12T03:40:08;5.60;;;2.72;;
30697;SDS011;17448;47.200;10.902;2023-08-12T03:42:36;2.95;;;2.40;;
30697;SDS011;17448;47.200;10.902;2023-08-12T03:45:02;3.65;;;2.45;;
30697;SDS011;17448;47.200;10.902;2023-08-12T03:47:29;4.72;;;2.60;;
30697;SDS011;17448;47.200;10.902;2023-08-12T03:49:56;4.88;;;2.55;;
30697;SDS011;17448;47.200;10.902;2023-08-12T03:52:22;4.03;;;2.65;;
30697;SDS011;17448;47.200;10.902;2023-08-12T03:54:48;6.47;;;2.83;;
30697;SDS011;17448;47.200;10.902;2023-08-12T03:57:17;5.85;;;3.30;;
30697;SDS011;17448;47.200;10.902;2023-08-12T03:59:43;4.13;;;2.90;;
30697;SDS011;17448;47.200;10.902;2023-08-12T04:02:13;4.07;;;2.42;;
30697;SDS011;17448;47.200;10.902;2023-08-12T04:04:39;3.17;;;2.20;;
30697;SDS011;17448;47.200;10.902;2023-08-12T04:07:07;5.30;;;2.88;;
30697;SDS011;17448;47.200;10.902;2023-08-12T04:09:34;5.00;;;2.35;;
30697;SDS011;17448;47.200;10.902;2023-08-12T04:12:00;3.92;;;2.50;;
30697;SDS011;17448;47.200;10.902;2023-08-12T04:14:26;2.90;;;2.35;;
30697;SDS011;17448;47.200;10.902;2023-08-12T04:16:53;4.45;;;2.53;;
30697;SDS011;17448;47.200;10.902;2023-08-12T04:19:19;6.03;;;2.70;;
30697;SDS011;17448;47.200;10.902;2023-08-12T04:21:46;3.40;;;2.65;;
30697;SDS011;17448;47.200;10.902;2023-08-12T04:24:13;3.88;;;2.92;;
30697;SDS011;17448;47.200;10.902;2023-08-12T04:26:39;3.65;;;2.60;;
30697;SDS011;17448;47.200;10.902;2023-08-12T04:29:06;5.30;;;2.75;;
30697;SDS011;17448;47.200;10.902;2023-08-12T04:31:36;5.88;;;2.63;;
30697;SDS011;17448;47.200;10.902;2023-08-12T04:34:02;6.78;;;3.08;;
30697;SDS011;17448;47.200;10.902;2023-08-12T04:36:30;6.78;;;2.72;;
30697;SDS011;17448;47.200;10.902;2023-08-12T04:38:58;4.03;;;2.30;;
30697;SDS011;17448;47.200;10.902;2023-08-12T04:41:25;6.70;;;2.72;;
30697;SDS011;17448;47.200;10.902;2023-08-12T04:43:53;4.45;;;2.60;;
30697;SDS011;17448;47.200;10.902;2023-08-12T04:46:22;3.17;;;2.40;;
30697;SDS011;17448;47.200;10.902;2023-08-12T04:48:48;4.38;;;2.75;;
30697;SDS011;17448;47.200;10.902;2023-08-12T04:51:15;3.47;;;2.53;;
30697;SDS011;17448;47.200;10.902;2023-08-12T04:53:42;4.63;;;2.80;;
30697;SDS011;17448;47.200;10.902;2023-08-12T04:56:09;5.75;;;2.40;;
30697;SDS011;17448;47.200;10.902;2023-08-12T04:58:35;3.83;;;2.78;;
30697;SDS011;17448;47.200;10.902;2023-08-12T05:01:02;4.13;;;2.80;;
30697;SDS011;17448;47.200;10.902;2023-08-12T05:03:29;3.65;;;2.55;;
30697;SDS011;17448;47.200;10.902;2023-08-12T05:05:56;3.38;;;2.45;;
30697;SDS011;17448;47.200;10.902;2023-08-12T05:08:25;4.43;;;2.60;;
30697;SDS011;17448;47.200;10.902;2023-08-12T05:10:52;4.72;;;2.72;;
30697;SDS011;17448;47.200;10.902;2023-08-12T05:13:20;4.32;;;2.47;;
30697;SDS011;17448;47.200;10.902;2023-08-12T05:15:46;4.35;;;2.50;;
30697;SDS011;17448;47.200;10.902;2023-08-12T05:18:14;4.13;;;2.45;;
30697;SDS011;17448;47.200;10.902;2023-08-12T05:20:41;3.83;;;2.50;;
30697;SDS011;17448;47.200;10.902;2023-08-12T05:23:07;4.43;;;3.00;;
30697;SDS011;17448;47.200;10.902;2023-08-12T05:25:33;4.50;;;2.47;;
30697;SDS011;17448;47.200;10.902;2023-08-12T05:27:59;3.53;;;2.58;;
30697;SDS011;17448;47.200;10.902;2023-08-12T05:30:25;6.72;;;2.70;;
30697;SDS011;17448;47.200;10.902;2023-08-12T05:32:52;6.70;;;2.95;;
30697;SDS011;17448;47.200;10.902;2023-08-12T05:35:18;5.50;;;2.70;;
30697;SDS011;17448;47.200;10.902;2023-08-12T05:37:44;6.40;;;3.28;;
30697;SDS011;17448;47.200;10.902;2023-08-12T05:40:10;9.88;;;2.53;;
30697;SDS011;17448;47.200;10.902;2023-08-12T05:45:12;5.50;;;2.75;;
30697;SDS011;17448;47.200;10.902;2023-08-12T05:47:39;7.10;;;2.75;;
30697;SDS011;17448;47.200;10.902;2023-08-12T05:50:05;5.82;;;2.60;;
30697;SDS011;17448;47.200;10.902;2023-08-12T05:52:32;4.53;;;2.67;;
30697;SDS011;17448;47.200;10.902;2023-08-12T05:54:58;2.97;;;2.50;;
30697;SDS011;17448;47.200;10.902;2023-08-12T05:57:25;4.55;;;2.47;;
30697;SDS011;17448;47.200;10.902;2023-08-12T05:59:54;7.03;;;3.45;;
30697;SDS011;17448;47.200;10.902;2023-08-12T06:02:20;4.30;;;2.85;;
30697;SDS011;17448;47.200;10.902;2023-08-12T06:04:47;5.63;;;2.97;;
30697;SDS011;17448;47.200;10.902;2023-08-12T06:07:13;6.45;;;2.70;;
30697;SDS011;17448;47.200;10.902;2023-08-12T06:09:39;3.25;;;2.65;;
30697;SDS011;17448;47.200;10.902;2023-08-12T06:12:06;5.05;;;2.70;;
30697;SDS011;17448;47.200;10.902;2023-08-12T06:14:32;3.60;;;2.70;;
30697;SDS011;17448;47.200;10.902;2023-08-12T06:16:59;6.40;;;2.95;;
30697;SDS011;17448;47.200;10.902;2023-08-12T06:19:25;4.20;;;2.97;;
30697;SDS011;17448;47.200;10.902;2023-08-12T06:21:51;5.60;;;2.90;;
30697;SDS011;17448;47.200;10.902;2023-08-12T06:27:19;3.50;;;2.35;;
30697;SDS011;17448;47.200;10.902;2023-08-12T06:29:46;5.85;;;2.97;;
30697;SDS011;17448;47.200;10.902;2023-08-12T06:32:12;4.55;;;2.80;;
30697;SDS011;17448;47.200;10.902;2023-08-12T06:34:40;4.25;;;2.65;;
30697;SDS011;17448;47.200;10.902;2023-08-12T06:37:06;3.80;;;2.67;;
30697;SDS011;17448;47.200;10.902;2023-08-12T06:39:33;8.00;;;2.85;;
30697;SDS011;17448;47.200;10.902;2023-08-12T06:41:59;3.75;;;2.50;;
30697;SDS011;17448;47.200;10.902;2023-08-12T06:44:28;5.03;;;2.83;;
30697;SDS011;17448;47.200;10.902;2023-08-12T06:46:55;3.75;;;2.80;;
30697;SDS011;17448;47.200;10.902;2023-08-12T06:49:22;4.95;;;3.30;;
30697;SDS011;17448;47.200;10.902;2023-08-12T06:51:48;4.30;;;2.67;;
30697;SDS011;17448;47.200;10.902;2023-08-12T06:54:15;4.38;;;2.95;;
30697;SDS011;17448;47.200;10.902;2023-08-12T06:56:41;3.90;;;3.33;;
30697;SDS011;17448;47.200;10.902;2023-08-12T06:59:08;6.82;;;3.00;;
30697;SDS011;17448;47.200;10.902;2023-08-12T07:01:35;4.18;;;2.97;;
30697;SDS011;17448;47.200;10.902;2023-08-12T07:04:01;7.35;;;2.90;;
30697;SDS011;17448;47.200;10.902;2023-08-12T07:06:28;4.55;;;3.00;;
30697;SDS011;17448;47.200;10.902;2023-08-12T07:08:54;6.82;;;2.83;;
30697;SDS011;17448;47.200;10.902;2023-08-12T07:11:21;7.13;;;2.92;;
30697;SDS011;17448;47.200;10.902;2023-08-12T07:13:48;4.55;;;2.97;;
30697;SDS011;17448;47.200;10.902;2023-08-12T07:19:03;5.30;;;2.70;;
30697;SDS011;17448;47.200;10.902;2023-08-12T07:21:30;4.53;;;2.60;;
30697;SDS011;17448;47.200;10.902;2023-08-12T07:23:56;9.48;;;3.60;;
30697;SDS011;17448;47.200;10.902;2023-08-12T07:26:22;5.20;;;2.90;;
30697;SDS011;17448;47.200;10.902;2023-08-12T07:28:49;4.43;;;3.08;;
30697;SDS011;17448;47.200;10.902;2023-08-12T07:31:15;4.28;;;3.35;;
30697;SDS011;17448;47.200;10.902;2023-08-12T07:33:42;4.82;;;3.00;;
30697;SDS011;17448;47.200;10.902;2023-08-12T07:36:08;7.45;;;3.10;;
30697;SDS011;17448;47.200;10.902;2023-08-12T07:38:34;3.72;;;2.78;;
30697;SDS011;17448;47.200;10.902;2023-08-12T07:41:01;7.43;;;3.45;;
30697;SDS011;17448;47.200;10.902;2023-08-12T07:43:28;3.67;;;2.60;;
30697;SDS011;17448;47.200;10.902;2023-08-12T07:45:54;4.90;;;3.20;;
30697;SDS011;17448;47.200;10.902;2023-08-12T07:48:23;4.53;;;2.80;;
30697;SDS011;17448;47.200;10.902;2023-08-12T07:50:57;7.93;;;3.05;;
30697;SDS011;17448;47.200;10.902;2023-08-12T07:53:23;3.90;;;2.75;;
30697;SDS011;17448;47.200;10.902;2023-08-12T07:55:50;4.40;;;2.72;;
30697;SDS011;17448;47.200;10.902;2023-08-12T07:58:16;3.78;;;2.75;;
30697;SDS011;17448;47.200;10.902;2023-08-12T08:00:42;5.50;;;2.63;;
30697;SDS011;17448;47.200;10.902;2023-08-12T08:03:09;4.43;;;3.05;;
30697;SDS011;17448;47.200;10.902;2023-08-12T08:05:35;5.22;;;2.70;;
30697;SDS011;17448;47.200;10.902;2023-08-12T08:08:06;3.47;;;2.50;;
30697;SDS011;17448;47.200;10.902;2023-08-12T08:10:32;7.18;;;2.70;;
30697;SDS011;17448;47.200;10.902;2023-08-12T08:12:59;4.47;;;2.47;;
30697;SDS011;17448;47.200;10.902;2023-08-12T08:15:25;3.67;;;2.53;;
30697;SDS011;17448;47.200;10.902;2023-08-12T08:17:51;4.00;;;2.47;;
30697;SDS011;17448;47.200;10.902;2023-08-12T08:20:17;4.35;;;2.70;;
30697;SDS011;17448;47.200;10.902;2023-08-12T08:22:43;6.35;;;2.63;;
30697;SDS011;17448;47.200;10.902;2023-08-12T08:25:09;3.50;;;2.33;;
30697;SDS011;17448;47.200;10.902;2023-08-12T08:27:36;3.58;;;2.85;;
30697;SDS011;17448;47.200;10.902;2023-08-12T08:30:04;5.88;;;2.65;;
30697;SDS011;17448;47.200;10.902;2023-08-12T08:32:32;4.20;;;3.10;;
30697;SDS011;17448;47.200;10.902;2023-08-12T08:34:58;3.80;;;3.40;;
30697;SDS011;17448;47.200;10.902;2023-08-12T08:37:24;4.43;;;3.17;;
30697;SDS011;17448;47.200;10.902;2023-08-12T08:39:50;5.43;;;3.00;;
30697;SDS011;17448;47.200;10.902;2023-08-12T08:42:16;5.38;;;3.72;;
30697;SDS011;17448;47.200;10.902;2023-08-12T08:44:44;3.40;;;2.70;;
30697;SDS011;17448;47.200;10.902;2023-08-12T08:47:11;2.97;;;2.70;;
30697;SDS011;17448;47.200;10.902;2023-08-12T08:49:39;6.15;;;3.42;;
30697;SDS011;17448;47.200;10.902;2023-08-12T08:52:06;4.50;;;3.38;;
30697;SDS011;17448;47.200;10.902;2023-08-12T08:54:32;5.15;;;3.53;;
30697;SDS011;17448;47.200;10.902;2023-08-12T08:57:03;5.78;;;3.40;;
30697;SDS011;17448;47.200;10.902;2023-08-12T08:59:29;4.38;;;2.80;;
30697;SDS011;17448;47.200;10.902;2023-08-12T09:01:55;4.38;;;3.20;;
30697;SDS011;17448;47.200;10.902;2023-08-12T09:04:22;3.40;;;3.00;;
30697;SDS011;17448;47.200;10.902;2023-08-12T09:06:49;7.13;;;3.28;;
30697;SDS011;17448;47.200;10.902;2023-08-12T09:09:19;5.25;;;3.65;;
30697;SDS011;17448;47.200;10.902;2023-08-12T09:11:46;6.53;;;3.88;;
30697;SDS011;17448;47.200;10.902;2023-08-12T09:14:13;4.07;;;3.47;;
30697;SDS011;17448;47.200;10.902;2023-08-12T09:16:39;5.00;;;3.65;;
30697;SDS011;17448;47.200;10.902;2023-08-12T09:19:06;7.13;;;3.78;;
30697;SDS011;17448;47.200;10.902;2023-08-12T09:21:32;4.55;;;4.05;;
30697;SDS011;17448;47.200;10.902;2023-08-12T09:24:01;4.15;;;3.63;;
30697;SDS011;17448;47.200;10.902;2023-08-12T09:26:28;4.13;;;3.72;;
30697;SDS011;17448;47.200;10.902;2023-08-12T09:28:55;5.97;;;4.13;;
30697;SDS011;17448;47.200;10.902;2023-08-12T09:31:22;7.22;;;4.28;;
30697;SDS011;17448;47.200;10.902;2023-08-12T09:33:54;4.28;;;3.53;;
30697;SDS011;17448;47.200;10.902;2023-08-12T09:36:23;4.32;;;3.58;;
30697;SDS011;17448;47.200;10.902;2023-08-12T09:38:49;4.13;;;3.70;;
30697;SDS011;17448;47.200;10.902;2023-08-12T09:41:15;6.90;;;3.60;;
30697;SDS011;17448;47.200;10.902;2023-08-12T09:43:42;4.70;;;3.63;;
30697;SDS011;17448;47.200;10.902;2023-08-12T09:46:11;5.55;;;3.78;;
30697;SDS011;17448;47.200;10.902;2023-08-12T09:48:39;6.20;;;4.20;;
30697;SDS011;17448;47.200;10.902;2023-08-12T09:51:05;5.40;;;3.95;;
30697;SDS011;17448;47.200;10.902;2023-08-12T09:53:32;4.15;;;3.60;;
30697;SDS011;17448;47.200;10.902;2023-08-12T09:56:01;4.13;;;3.70;;
30697;SDS011;17448;47.200;10.902;2023-08-12T10:00:57;4.30;;;3.83;;
30697;SDS011;17448;47.200;10.902;2023-08-12T10:03:24;6.93;;;3.60;;
30697;SDS011;17448;47.200;10.902;2023-08-12T10:05:51;3.65;;;3.20;;
30697;SDS011;17448;47.200;10.902;2023-08-12T10:08:17;4.28;;;3.38;;
30697;SDS011;17448;47.200;10.902;2023-08-12T10:10:44;4.78;;;3.25;;
30697;SDS011;17448;47.200;10.902;2023-08-12T10:13:10;4.30;;;3.20;;
30697;SDS011;17448;47.200;10.902;2023-08-12T10:15:37;5.70;;;3.20;;
30697;SDS011;17448;47.200;10.902;2023-08-12T10:18:04;4.97;;;3.78;;
30697;SDS011;17448;47.200;10.902;2023-08-12T10:20:31;9.05;;;3.63;;
30697;SDS011;17448;47.200;10.902;2023-08-12T10:22:58;3.85;;;3.47;;
30697;SDS011;17448;47.200;10.902;2023-08-12T10:25:26;4.05;;;3.47;;
30697;SDS011;17448;47.200;10.902;2023-08-12T10:27:56;6.95;;;3.65;;
30697;SDS011;17448;47.200;10.902;2023-08-12T10:30:22;6.32;;;3.70;;
30697;SDS011;17448;47.200;10.902;2023-08-12T10:32:49;7.18;;;4.47;;
30697;SDS011;17448;47.200;10.902;2023-08-12T10:35:15;8.05;;;4.35;;
30697;SDS011;17448;47.200;10.902;2023-08-12T10:37:42;8.20;;;4.32;;
30697;SDS011;17448;47.200;10.902;2023-08-12T10:40:20;8.63;;;4.53;;
30697;SDS011;17448;47.200;10.902;2023-08-12T10:42:47;7.00;;;4.20;;
30697;SDS011;17448;47.200;10.902;2023-08-12T10:45:14;4.80;;;4.10;;
30697;SDS011;17448;47.200;10.902;2023-08-12T10:47:41;5.88;;;3.38;;
30697;SDS011;17448;47.200;10.902;2023-08-12T10:50:19;6.68;;;3.45;;
30697;SDS011;17448;47.200;10.902;2023-08-12T10:52:45;4.53;;;3.75;;
30697;SDS011;17448;47.200;10.902;2023-08-12T10:57:48;4.43;;;3.50;;
30697;SDS011;17448;47.200;10.902;2023-08-12T11:00:15;5.10;;;3.33;;
30697;SDS011;17448;47.200;10.902;2023-08-12T11:02:45;4.90;;;3.58;;
30697;SDS011;17448;47.200;10.902;2023-08-12T11:05:12;4.50;;;3.45;;
30697;SDS011;17448;47.200;10.902;2023-08-12T11:07:45;6.30;;;3.97;;
30697;SDS011;17448;47.200;10.902;2023-08-12T11:10:15;5.18;;;4.00;;
30697;SDS011;17448;47.200;10.902;2023-08-12T11:12:47;7.30;;;3.85;;
30697;SDS011;17448;47.200;10.902;2023-08-12T11:15:13;4.80;;;3.83;;
30697;SDS011;17448;47.200;10.902;2023-08-12T11:17:40;4.60;;;4.20;;
30697;SDS011;17448;47.200;10.902;2023-08-12T11:20:10;4.47;;;4.00;;
30697;SDS011;17448;47.200;10.902;2023-08-12T11:22:38;4.28;;;3.78;;
30697;SDS011;17448;47.200;10.902;2023-08-12T11:25:12;4.93;;;4.00;;
30697;SDS011;17448;47.200;10.902;2023-08-12T11:27:39;5.53;;;4.18;;
30697;SDS011;17448;47.200;10.902;2023-08-12T11:30:06;4.97;;;4.00;;
30697;SDS011;17448;47.200;10.902;2023-08-12T11:32:32;5.60;;;4.05;;
30697;SDS011;17448;47.200;10.902;2023-08-12T11:34:59;3.92;;;3.55;;
30697;SDS011;17448;47.200;10.902;2023-08-12T11:37:25;5.47;;;4.00;;
30697;SDS011;17448;47.200;10.902;2023-08-12T11:39:52;4.93;;;3.70;;
30697;SDS011;17448;47.200;10.902;2023-08-12T11:42:20;4.15;;;3.75;;
30697;SDS011;17448;47.200;10.902;2023-08-12T11:44:47;3.95;;;3.63;;
30697;SDS011;17448;47.200;10.902;2023-08-12T11:47:13;4.82;;;3.80;;
30697;SDS011;17448;47.200;10.902;2023-08-12T11:49:39;5.32;;;3.83;;
30697;SDS011;17448;47.200;10.902;2023-08-12T11:52:06;7.78;;;4.43;;
30697;SDS011;17448;47.200;10.902;2023-08-12T11:54:32;5.00;;;3.53;;
30697;SDS011;17448;47.200;10.902;2023-08-12T11:56:58;5.28;;;3.95;;
30697;SDS011;17448;47.200;10.902;2023-08-12T11:59:25;6.63;;;4.00;;
30697;SDS011;17448;47.200;10.902;2023-08-12T12:01:51;5.63;;;3.70;;
30697;SDS011;17448;47.200;10.902;2023-08-12T12:04:18;4.70;;;3.80;;
30697;SDS011;17448;47.200;10.902;2023-08-12T12:06:49;3.67;;;3.38;;
30697;SDS011;17448;47.200;10.902;2023-08-12T12:09:15;5.10;;;3.80;;
30697;SDS011;17448;47.200;10.902;2023-08-12T12:11:44;6.22;;;3.72;;
30697;SDS011;17448;47.200;10.902;2023-08-12T12:14:10;5.50;;;3.17;;
30697;SDS011;17448;47.200;10.902;2023-08-12T12:16:41;4.82;;;3.60;;
30697;SDS011;17448;47.200;10.902;2023-08-12T12:19:18;4.80;;;3.60;;
30697;SDS011;17448;47.200;10.902;2023-08-12T12:21:46;5.70;;;3.80;;
30697;SDS011;17448;47.200;10.902;2023-08-12T12:24:13;5.13;;;3.80;;
30697;SDS011;17448;47.200;10.902;2023-08-12T12:26:39;5.25;;;4.03;;
30697;SDS011;17448;47.200;10.902;2023-08-12T12:29:06;6.40;;;3.70;;
30697;SDS011;17448;47.200;10.902;2023-08-12T12:31:33;5.68;;;3.58;;
30697;SDS011;17448;47.200;10.902;2023-08-12T12:34:01;3.70;;;3.38;;
30697;SDS011;17448;47.200;10.902;2023-08-12T12:36:27;3.92;;;3.38;;
30697;SDS011;17448;47.200;10.902;2023-08-12T12:38:53;7.18;;;3.40;;
30697;SDS011;17448;47.200;10.902;2023-08-12T12:41:20;4.20;;;3.78;;
30697;SDS011;17448;47.200;10.902;2023-08-12T12:43:46;8.07;;;3.67;;
30697;SDS011;17448;47.200;10.902;2023-08-12T12:46:12;13.20;;;3.63;;
30697;SDS011;17448;47.200;10.902;2023-08-12T12:48:38;6.28;;;3.40;;
30697;SDS011;17448;47.200;10.902;2023-08-12T12:51:06;9.57;;;4.82;;
30697;SDS011;17448;47.200;10.902;2023-08-12T12:53:32;4.55;;;3.60;;
30697;SDS011;17448;47.200;10.902;2023-08-12T12:55:58;6.18;;;4.13;;
30697;SDS011;17448;47.200;10.902;2023-08-12T12:58:32;6.00;;;3.80;;
30697;SDS011;17448;47.200;10.902;2023-08-12T13:00:58;4.87;;;2.87;;
30697;SDS011;17448;47.200;10.902;2023-08-12T13:03:25;4.20;;;3.70;;
30697;SDS011;17448;47.200;10.902;2023-08-12T13:05:51;6.40;;;3.85;;
30697;SDS011;17448;47.200;10.902;2023-08-12T13:08:17;6.45;;;3.47;;
30697;SDS011;17448;47.200;10.902;2023-08-12T13:10:43;5.15;;;3.40;;
30697;SDS011;17448;47.200;10.902;2023-08-12T13:13:10;5.70;;;3.30;;
30697;SDS011;17448;47.200;10.902;2023-08-12T13:15:36;4.25;;;3.50;;
30697;SDS011;17448;47.200;10.902;2023-08-12T13:18:02;6.15;;;3.50;;
30697;SDS011;17448;47.200;10.902;2023-08-12T13:20:29;6.65;;;3.55;;
30697;SDS011;17448;47.200;10.902;2023-08-12T13:22:55;6.05;;;3.35;;
30697;SDS011;17448;47.200;10.902;2023-08-12T13:25:21;3.80;;;3.40;;
30697;SDS011;17448;47.200;10.902;2023-08-12T13:27:47;4.43;;;3.50;;
30697;SDS011;17448;47.200;10.902;2023-08-12T13:30:13;6.88;;;3.55;;
30697;SDS011;17448;47.200;10.902;2023-08-12T13:32:40;3.33;;;3.03;;
30697;SDS011;17448;47.200;10.902;2023-08-12T13:35:06;3.78;;;3.35;;
30697;SDS011;17448;47.200;10.902;2023-08-12T13:37:32;3.83;;;3.30;;
30697;SDS011;17448;47.200;10.902;2023-08-12T13:39:58;5.45;;;3.00;;
30697;SDS011;17448;47.200;10.902;2023-08-12T13:42:25;6.90;;;3.10;;
30697;SDS011;17448;47.200;10.902;2023-08-12T13:44:51;5.25;;;2.70;;
30697;SDS011;17448;47.200;10.902;2023-08-12T13:47:18;4.65;;;3.47;;
30697;SDS011;17448;47.200;10.902;2023-08-12T13:49:44;4.47;;;3.30;;
30697;SDS011;17448;47.200;10.902;2023-08-12T13:52:10;7.25;;;3.13;;
30697;SDS011;17448;47.200;10.902;2023-08-12T13:54:37;3.72;;;3.20;;
30697;SDS011;17448;47.200;10.902;2023-08-12T13:57:03;5.50;;;3.30;;
30697;SDS011;17448;47.200;10.902;2023-08-12T13:59:29;4.22;;;3.58;;
30697;SDS011;17448;47.200;10.902;2023-08-12T14:01:55;8.50;;;3.72;;
30697;SDS011;17448;47.200;10.902;2023-08-12T14:04:21;4.80;;;3.42;;
30697;SDS011;17448;47.200;10.902;2023-08-12T14:06:48;4.20;;;3.00;;
30697;SDS011;17448;47.200;10.902;2023-08-12T14:09:14;8.38;;;2.90;;
30697;SDS011;17448;47.200;10.902;2023-08-12T14:11:44;6.47;;;2.97;;
30697;SDS011;17448;47.200;10.902;2023-08-12T14:14:11;5.65;;;3.10;;
30697;SDS011;17448;47.200;10.902;2023-08-12T14:16:37;9.43;;;3.08;;
30697;SDS011;17448;47.200;10.902;2023-08-12T14:19:03;5.75;;;3.10;;
30697;SDS011;17448;47.200;10.902;2023-08-12T14:21:29;5.28;;;3.10;;
30697;SDS011;17448;47.200;10.902;2023-08-12T14:23:55;7.03;;;3.03;;
30697;SDS011;17448;47.200;10.902;2023-08-12T14:26:22;4.53;;;2.80;;
30697;SDS011;17448;47.200;10.902;2023-08-12T14:28:48;5.65;;;3.03;;
30697;SDS011;17448;47.200;10.902;2023-08-12T14:31:14;6.38;;;3.00;;
30697;SDS011;17448;47.200;10.902;2023-08-12T14:33:40;6.57;;;3.33;;
30697;SDS011;17448;47.200;10.902;2023-08-12T14:36:06;5.28;;;3.08;;
30697;SDS011;17448;47.200;10.902;2023-08-12T14:38:33;7.10;;;3.42;;
30697;SDS011;17448;47.200;10.902;2023-08-12T14:40:59;5.28;;;2.70;;
30697;SDS011;17448;47.200;10.902;2023-08-12T14:43:25;4.47;;;2.70;;
30697;SDS011;17448;47.200;10.902;2023-08-12T14:45:52;6.38;;;3.10;;
30697;SDS011;17448;47.200;10.902;2023-08-12T14:48:18;3.28;;;2.67;;